Terminal Aerodrome Forecast
Issued by NWS

Home | Current Version | Previous Version | Text Only | Print | Product List | Glossary On
Versions: 1 2 3 4 5 6 7 8 9 10 11 12 13 14 15 16
000
FTUS46 KSEW 260723 AAA
TAFOLM
TAF AMD
KOLM 260723Z 2607/2706 20006KT P6SM SCT025
      TEMPO 2608/2610 OVC025
     FM261000 20010KT P6SM OVC018
     FM262100 23012G20KT P6SM BKN025 BKN040
     FM270000 24012G22KT P6SM VCSH BKN025 OVC040=

USA.gov is the U.S. government's official web portal to all federal, state and local government web resources and services.